Time;durP1;ratioP1;P1;durP2;ratioP2;P2;SDS_P1;SDS_P2;PMS_P1;PMS_P2;Temp;Humidity;BMP_temperature;BMP_pressure;BME280_temperature;BME280_humidity;BME280_pressure;Samples;Min_cycle;Max_cycle;Signal;HPM_P1;HPM_P2
2021/09/20 00:01:32;;;;;;;3.42;1.25;;;24.00;52.30;;;;;;5047237;28;20438;-60
2021/09/20 00:03:58;;;;;;;2.55;1.30;;;24.00;52.30;;;;;;5035313;28;20065;-58
2021/09/20 00:06:23;;;;;;;2.20;1.33;;;24.00;52.30;;;;;;5037423;28;20053;-60
2021/09/20 00:08:49;;;;;;;2.13;1.30;;;24.00;52.30;;;;;;5032062;28;20025;-55
2021/09/20 00:11:15;;;;;;;3.03;1.27;;;24.00;52.30;;;;;;5047041;28;20032;-60
2021/09/20 00:13:41;;;;;;;2.80;1.50;;;24.00;52.30;;;;;;5041476;28;20463;-60
2021/09/20 00:16:06;;;;;;;2.10;1.30;;;24.00;52.30;;;;;;5038782;28;20492;-60
2021/09/20 00:18:32;;;;;;;2.83;1.45;;;24.00;52.30;;;;;;5041061;28;20029;-60
2021/09/20 00:20:58;;;;;;;2.47;1.23;;;23.90;52.30;;;;;;5051763;28;20061;-59
2021/09/20 00:23:24;;;;;;;2.00;1.13;;;23.90;52.80;;;;;;5047794;28;20488;-59
2021/09/20 00:25:50;;;;;;;1.80;1.25;;;23.90;52.30;;;;;;5033021;28;20113;-60
2021/09/20 00:28:16;;;;;;;1.85;1.20;;;23.90;52.30;;;;;;5026350;28;20191;-60
2021/09/20 00:30:42;;;;;;;2.65;1.35;;;23.90;52.30;;;;;;5043562;28;20108;-54
2021/09/20 00:33:08;;;;;;;1.42;1.10;;;23.90;52.30;;;;;;5048252;28;20064;-59
2021/09/20 00:35:34;;;;;;;2.55;1.42;;;23.90;52.30;;;;;;5033171;28;20470;-60
2021/09/20 00:38:00;;;;;;;1.88;1.23;;;23.90;52.80;;;;;;5031764;28;20033;-55
2021/09/20 00:40:25;;;;;;;2.03;1.10;;;23.90;52.30;;;;;;5045619;28;20120;-60
2021/09/20 00:42:51;;;;;;;2.13;1.15;;;23.90;52.30;;;;;;5043884;28;20168;-58
2021/09/20 00:45:17;;;;;;;1.88;1.10;;;23.90;52.30;;;;;;5046574;28;20525;-59
2021/09/20 00:47:43;;;;;;;2.00;1.15;;;23.90;52.30;;;;;;5041716;28;20029;-59
2021/09/20 00:50:09;;;;;;;2.53;1.20;;;23.90;52.30;;;;;;5040481;28;20041;-54
2021/09/20 00:52:35;;;;;;;1.98;1.30;;;23.90;52.30;;;;;;5046241;28;20024;-59
2021/09/20 00:55:02;;;;;;;2.85;1.13;;;23.90;52.30;;;;;;5046064;28;20036;-60
2021/09/20 00:57:27;;;;;;;1.80;1.10;;;23.90;52.40;;;;;;5042612;28;20104;-60
2021/09/20 00:59:53;;;;;;;2.80;1.33;;;23.90;52.40;;;;;;5038594;28;20116;-59
2021/09/20 01:02:19;;;;;;;1.52;1.10;;;23.80;52.40;;;;;;5032706;28;20040;-60
2021/09/20 01:04:44;;;;;;;1.95;1.20;;;23.80;52.30;;;;;;5035296;28;20351;-56
2021/09/20 01:07:10;;;;;;;2.40;1.20;;;23.80;52.30;;;;;;5038729;28;20367;-59
2021/09/20 01:09:39;;;;;;;2.03;1.20;;;23.80;52.30;;;;;;5045341;28;20347;-60
2021/09/20 01:12:05;;;;;;;1.60;1.00;;;23.80;52.40;;;;;;5028300;28;20021;-59
2021/09/20 01:14:30;;;;;;;2.10;1.20;;;23.80;52.30;;;;;;5043266;28;20099;-60
2021/09/20 01:16:56;;;;;;;1.73;1.15;;;23.80;52.40;;;;;;5042255;28;20029;-55
2021/09/20 01:19:21;;;;;;;1.52;1.10;;;23.80;52.40;;;;;;5043045;28;20404;-60
2021/09/20 01:21:47;;;;;;;2.80;1.13;;;23.80;52.40;;;;;;5040593;28;20092;-59
2021/09/20 01:24:13;;;;;;;2.25;1.13;;;23.80;52.90;;;;;;5037404;28;20469;-56
2021/09/20 01:26:38;;;;;;;1.90;1.10;;;23.80;52.40;;;;;;5041201;28;20048;-60
2021/09/20 01:29:06;;;;;;;2.70;1.20;;;23.80;52.40;;;;;;5041680;28;20036;-60
2021/09/20 01:31:32;;;;;;;1.92;1.17;;;23.80;52.40;;;;;;5047602;28;20033;-54
2021/09/20 01:33:58;;;;;;;2.10;1.10;;;23.70;52.40;;;;;;5056703;28;20062;-60
2021/09/20 01:36:23;;;;;;;1.77;1.25;;;23.70;52.40;;;;;;5048857;28;20125;-60
2021/09/20 01:38:49;;;;;;;1.88;1.10;;;23.80;52.40;;;;;;5049770;28;20029;-60
2021/09/20 01:41:14;;;;;;;1.83;1.13;;;23.70;52.40;;;;;;5050961;28;20040;-57
2021/09/20 01:43:40;;;;;;;1.52;1.00;;;23.70;52.40;;;;;;5041119;28;20082;-60
2021/09/20 01:46:06;;;;;;;1.70;1.20;;;23.70;52.40;;;;;;5049517;28;20132;-60
2021/09/20 01:48:31;;;;;;;1.80;1.20;;;23.70;52.40;;;;;;5064013;28;20033;-59
2021/09/20 01:50:57;;;;;;;1.60;1.10;;;23.70;52.40;;;;;;5051104;28;20524;-60
2021/09/20 01:53:23;;;;;;;1.20;1.00;;;23.70;52.40;;;;;;5040733;28;20136;-60
2021/09/20 01:55:48;;;;;;;1.42;1.10;;;23.70;52.40;;;;;;5059786;28;20029;-59
2021/09/20 01:58:14;;;;;;;1.45;1.00;;;23.70;52.40;;;;;;5043393;28;20048;-60
2021/09/20 02:00:43;;;;;;;1.83;1.20;;;23.70;52.50;;;;;;5040042;28;20041;-59
2021/09/20 02:03:11;;;;;;;1.52;1.05;;;23.70;52.50;;;;;;5046401;28;20500;-59
2021/09/20 02:05:37;;;;;;;2.65;1.33;;;23.70;52.50;;;;;;5032220;28;20041;-60
2021/09/20 02:08:04;;;;;;;1.60;1.20;;;23.70;52.50;;;;;;5044474;28;20505;-52
2021/09/20 02:10:29;;;;;;;1.70;1.20;;;23.70;52.50;;;;;;5045896;28;20029;-60
2021/09/20 02:12:55;;;;;;;1.17;1.05;;;23.70;52.50;;;;;;5041388;28;20036;-60
2021/09/20 02:15:21;;;;;;;1.75;1.10;;;23.70;52.50;;;;;;5031395;28;20044;-59
2021/09/20 02:17:46;;;;;;;1.50;0.98;;;23.70;52.50;;;;;;5041871;28;20060;-60
2021/09/20 02:20:13;;;;;;;1.10;0.90;;;23.70;52.50;;;;;;5043335;28;20041;-59
2021/09/20 02:22:39;;;;;;;1.85;1.10;;;23.60;52.50;;;;;;5049236;28;20413;-60
2021/09/20 02:25:07;;;;;;;1.50;1.00;;;23.70;52.50;;;;;;5030337;28;20033;-57
2021/09/20 02:27:34;;;;;;;1.73;1.20;;;23.70;52.50;;;;;;5042379;28;20021;-60
2021/09/20 02:30:04;;;;;;;2.25;1.17;;;23.70;52.50;;;;;;5047404;28;20604;-56
2021/09/20 02:32:31;;;;;;;1.60;1.00;;;23.60;52.50;;;;;;5044146;28;20057;-60
2021/09/20 02:34:56;;;;;;;1.33;1.05;;;23.60;52.50;;;;;;5043493;28;20032;-59
2021/09/20 02:37:22;;;;;;;2.03;1.10;;;23.60;52.50;;;;;;5042044;28;20381;-59
2021/09/20 02:39:48;;;;;;;1.50;1.00;;;23.60;52.50;;;;;;5049607;28;20033;-60
2021/09/20 02:42:13;;;;;;;1.75;1.20;;;23.60;52.50;;;;;;5039858;28;20099;-57
2021/09/20 02:44:39;;;;;;;1.58;1.10;;;23.60;52.60;;;;;;5043769;28;20032;-60
2021/09/20 02:47:05;;;;;;;2.05;1.15;;;23.60;52.60;;;;;;5043615;28;20020;-59
2021/09/20 02:49:31;;;;;;;1.33;0.98;;;23.60;52.60;;;;;;5050211;28;20714;-60
2021/09/20 02:51:56;;;;;;;1.45;1.00;;;23.60;52.60;;;;;;5043174;28;20013;-55
2021/09/20 02:54:22;;;;;;;1.38;0.90;;;23.60;52.60;;;;;;5041991;28;20031;-60
2021/09/20 02:56:48;;;;;;;2.03;1.30;;;23.60;52.60;;;;;;5040441;28;20393;-56
2021/09/20 02:59:13;;;;;;;1.65;1.10;;;23.60;52.60;;;;;;5035585;28;20040;-60
2021/09/20 03:01:39;;;;;;;1.60;1.10;;;23.60;52.60;;;;;;5042777;28;20045;-60
2021/09/20 03:04:04;;;;;;;1.83;1.00;;;23.60;52.60;;;;;;5042144;28;20443;-61
2021/09/20 03:06:30;;;;;;;1.60;1.05;;;23.60;52.60;;;;;;5037348;28;20032;-60
2021/09/20 03:08:55;;;;;;;1.42;0.95;;;23.60;52.60;;;;;;5036121;28;20041;-59
2021/09/20 03:11:22;;;;;;;1.63;1.10;;;23.60;52.60;;;;;;5036438;28;20079;-60
2021/09/20 03:13:47;;;;;;;1.52;1.10;;;23.50;53.10;;;;;;5038957;28;20029;-56
2021/09/20 03:16:14;;;;;;;3.22;1.10;;;23.50;53.10;;;;;;5033751;28;20052;-60
2021/09/20 03:18:39;;;;;;;1.45;0.90;;;23.50;52.60;;;;;;5039005;28;20034;-58
2021/09/20 03:21:05;;;;;;;1.80;0.90;;;23.50;52.60;;;;;;5045952;28;20079;-60
2021/09/20 03:23:30;;;;;;;1.27;0.90;;;23.50;52.60;;;;;;5048901;28;20039;-59
2021/09/20 03:25:56;;;;;;;1.38;0.95;;;23.50;52.60;;;;;;5039317;28;20029;-60
2021/09/20 03:28:21;;;;;;;1.65;1.10;;;23.50;52.60;;;;;;5033602;28;20038;-60
2021/09/20 03:30:47;;;;;;;1.70;1.00;;;23.50;52.60;;;;;;5037897;28;20026;-60
2021/09/20 03:33:13;;;;;;;1.23;0.98;;;23.50;52.60;;;;;;5047519;28;20016;-60
2021/09/20 03:35:38;;;;;;;1.58;1.10;;;23.50;52.70;;;;;;5043963;28;20025;-59
2021/09/20 03:38:04;;;;;;;1.33;0.90;;;23.50;53.20;;;;;;5043699;28;20029;-53
2021/09/20 03:40:30;;;;;;;1.27;1.00;;;23.40;52.60;;;;;;5044093;28;20040;-60
2021/09/20 03:42:55;;;;;;;1.23;0.98;;;23.40;52.60;;;;;;5041511;28;20377;-60
2021/09/20 03:45:21;;;;;;;1.08;0.90;;;23.50;52.70;;;;;;5038344;28;20052;-60
2021/09/20 03:47:47;;;;;;;1.10;0.80;;;23.40;52.60;;;;;;5029163;28;20573;-54
2021/09/20 03:50:13;;;;;;;1.77;1.10;;;23.50;52.70;;;;;;5037854;28;20067;-57
2021/09/20 03:52:41;;;;;;;1.48;1.00;;;23.50;52.70;;;;;;5040914;28;20036;-60
2021/09/20 03:55:08;;;;;;;1.50;1.00;;;23.50;52.70;;;;;;5035514;28;20019;-56
2021/09/20 03:57:33;;;;;;;0.98;0.88;;;23.50;52.70;;;;;;5042906;28;20033;-60
2021/09/20 03:59:59;;;;;;;1.58;1.10;;;23.40;52.70;;;;;;5046217;28;20032;-59
2021/09/20 04:02:24;;;;;;;1.33;1.00;;;23.40;52.70;;;;;;5041259;28;20041;-60
2021/09/20 04:04:50;;;;;;;1.50;1.10;;;23.40;52.70;;;;;;5035208;28;20037;-60
2021/09/20 04:07:16;;;;;;;1.65;1.00;;;23.40;52.70;;;;;;5039314;28;20643;-59
2021/09/20 04:09:42;;;;;;;1.45;1.00;;;23.40;52.70;;;;;;5030079;28;20032;-59
2021/09/20 04:12:09;;;;;;;1.38;0.90;;;23.40;52.70;;;;;;5038332;28;20049;-60
2021/09/20 04:14:38;;;;;;;1.20;1.00;;;23.40;52.70;;;;;;5040680;28;20417;-58
2021/09/20 04:17:07;;;;;;;1.35;1.00;;;23.40;52.80;;;;;;5037330;28;20025;-59
2021/09/20 04:19:34;;;;;;;1.35;0.90;;;23.40;52.70;;;;;;5038093;28;20044;-59
2021/09/20 04:22:00;;;;;;;1.42;0.90;;;23.40;52.70;;;;;;5045878;28;20127;-56
2021/09/20 04:24:25;;;;;;;1.30;0.90;;;23.40;52.70;;;;;;5036913;28;20366;-59
2021/09/20 04:26:51;;;;;;;1.23;0.90;;;23.30;52.70;;;;;;5045610;28;20115;-53
2021/09/20 04:29:17;;;;;;;1.98;1.10;;;23.40;52.80;;;;;;5039910;28;20082;-60
2021/09/20 04:31:42;;;;;;;1.40;1.05;;;23.40;52.80;;;;;;5043966;28;20033;-59
2021/09/20 04:34:08;;;;;;;1.33;0.90;;;23.40;52.80;;;;;;5047256;28;20103;-59
2021/09/20 04:36:34;;;;;;;1.50;1.00;;;23.40;52.80;;;;;;5047501;28;20033;-59
2021/09/20 04:38:59;;;;;;;1.33;0.90;;;23.40;52.80;;;;;;5046861;28;20029;-56
2021/09/20 04:41:25;;;;;;;1.20;1.00;;;23.40;52.80;;;;;;5029090;28;20033;-59
2021/09/20 04:43:50;;;;;;;1.20;1.00;;;23.30;52.80;;;;;;5038318;28;20598;-59
2021/09/20 04:46:16;;;;;;;1.30;1.00;;;23.40;52.80;;;;;;5037568;28;20044;-59
2021/09/20 04:48:41;;;;;;;1.50;1.00;;;23.30;52.80;;;;;;5048576;28;20036;-50
2021/09/20 04:51:07;;;;;;;1.42;1.10;;;23.30;52.80;;;;;;5044078;28;20170;-59
2021/09/20 04:53:33;;;;;;;1.40;1.10;;;23.30;52.80;;;;;;5045324;28;20037;-59
2021/09/20 04:55:58;;;;;;;1.25;0.95;;;23.30;52.80;;;;;;5030774;28;20040;-59
2021/09/20 04:58:24;;;;;;;1.52;1.00;;;23.30;52.70;;;;;;5041963;28;20028;-58
2021/09/20 05:00:50;;;;;;;1.45;1.08;;;23.30;52.70;;;;;;5038729;28;20473;-59
2021/09/20 05:03:15;;;;;;;1.60;1.10;;;23.30;52.70;;;;;;5043929;28;20093;-59
2021/09/20 05:05:41;;;;;;;1.65;1.00;;;23.30;52.70;;;;;;5033685;28;20049;-59
2021/09/20 05:08:07;;;;;;;1.38;1.00;;;23.30;52.70;;;;;;5036050;28;20028;-54
2021/09/20 05:10:33;;;;;;;1.20;0.90;;;23.30;52.70;;;;;;5030899;28;20033;-56
2021/09/20 05:12:58;;;;;;;1.98;1.20;;;23.30;52.70;;;;;;5034696;28;20021;-58
2021/09/20 05:15:24;;;;;;;2.13;1.00;;;23.30;52.70;;;;;;5027786;28;20026;-55
2021/09/20 05:17:50;;;;;;;1.25;1.00;;;23.30;52.70;;;;;;5037453;28;20033;-59
2021/09/20 05:20:17;;;;;;;1.83;1.15;;;23.30;52.70;;;;;;5047575;28;20047;-60
2021/09/20 05:22:42;;;;;;;1.45;1.00;;;23.30;52.70;;;;;;5039511;28;20416;-56
2021/09/20 05:25:09;;;;;;;1.55;1.02;;;23.30;53.20;;;;;;5040315;28;20037;-58
2021/09/20 05:27:35;;;;;;;1.52;1.10;;;23.30;52.80;;;;;;5041077;28;20040;-58
2021/09/20 05:30:03;;;;;;;1.55;1.10;;;23.40;52.80;;;;;;5037791;28;20499;-52
2021/09/20 05:32:28;;;;;;;1.77;1.20;;;23.40;52.60;;;;;;5047101;28;20108;-55
2021/09/20 05:34:54;;;;;;;1.30;1.00;;;23.50;52.40;;;;;;5044326;28;20105;-58
2021/09/20 05:37:20;;;;;;;1.50;1.00;;;23.60;52.20;;;;;;5038032;28;20030;-51
2021/09/20 05:39:46;;;;;;;1.88;1.10;;;23.70;52.20;;;;;;5034973;28;20020;-60
2021/09/20 05:42:11;;;;;;;1.17;0.93;;;23.70;52.10;;;;;;5043173;28;20072;-59
2021/09/20 05:44:37;;;;;;;1.98;1.00;;;23.80;52.00;;;;;;5044033;28;20044;-58
2021/09/20 05:47:03;;;;;;;1.52;1.10;;;23.90;52.00;;;;;;5060756;28;20051;-60
2021/09/20 05:49:30;;;;;;;2.15;1.40;;;24.00;51.70;;;;;;5037438;28;20076;-57
2021/09/20 05:51:56;;;;;;;2.17;1.23;;;24.10;51.50;;;;;;5039474;28;20036;-57
2021/09/20 05:54:21;;;;;;;2.00;1.17;;;24.10;51.20;;;;;;5042922;28;20033;-59
2021/09/20 05:56:47;;;;;;;1.92;1.13;;;24.20;51.60;;;;;;5046784;28;20051;-60
2021/09/20 05:59:12;;;;;;;1.80;1.17;;;24.30;51.10;;;;;;5043663;28;20033;-58
2021/09/20 06:01:38;;;;;;;2.28;1.20;;;24.20;51.00;;;;;;5034285;28;20095;-59
2021/09/20 06:04:04;;;;;;;1.80;1.20;;;24.20;51.00;;;;;;5041030;28;20025;-60
2021/09/20 06:06:29;;;;;;;1.23;1.00;;;24.30;51.20;;;;;;5047294;28;20036;-60
2021/09/20 06:08:55;;;;;;;1.40;1.02;;;24.30;51.20;;;;;;5039698;28;20040;-59
2021/09/20 06:11:21;;;;;;;1.50;1.10;;;24.30;51.20;;;;;;5046122;28;20026;-56
2021/09/20 06:13:47;;;;;;;1.73;1.13;;;24.30;51.20;;;;;;5036731;28;20104;-58
2021/09/20 06:16:14;;;;;;;1.50;1.00;;;24.40;51.20;;;;;;5038251;28;20575;-59
2021/09/20 06:18:40;;;;;;;2.55;1.20;;;24.50;51.20;;;;;;5038189;28;20035;-59
2021/09/20 06:21:05;;;;;;;2.05;1.20;;;24.60;50.90;;;;;;5037657;28;20650;-59
2021/09/20 06:23:31;;;;;;;2.33;1.17;;;24.60;50.60;;;;;;5048668;28;20036;-59
2021/09/20 06:25:57;;;;;;;2.35;1.10;;;24.70;50.50;;;;;;5046708;28;20112;-59
2021/09/20 06:28:23;;;;;;;1.70;1.10;;;24.80;50.30;;;;;;5051174;28;20036;-56
2021/09/20 06:30:48;;;;;;;1.67;1.23;;;24.90;50.40;;;;;;5049815;28;20461;-59
2021/09/20 06:33:14;;;;;;;1.63;1.05;;;24.90;50.80;;;;;;5042039;28;20031;-58
2021/09/20 06:35:40;;;;;;;1.90;1.23;;;24.80;50.20;;;;;;5046257;28;20017;-58
2021/09/20 06:38:05;;;;;;;2.05;1.00;;;24.80;50.20;;;;;;5039551;28;20025;-59
2021/09/20 06:40:31;;;;;;;1.02;0.90;;;24.90;50.30;;;;;;5040801;28;20033;-61
2021/09/20 06:42:58;;;;;;;1.85;1.20;;;24.90;50.30;;;;;;5033108;28;20041;-59
2021/09/20 06:45:24;;;;;;;2.55;1.08;;;24.90;50.20;;;;;;5042291;28;20021;-59
2021/09/20 06:47:49;;;;;;;2.08;1.15;;;24.90;50.20;;;;;;5050435;28;20058;-59
2021/09/20 06:50:15;;;;;;;2.53;1.20;;;24.90;50.20;;;;;;5048251;28;20104;-58
2021/09/20 06:52:41;;;;;;;1.48;1.10;;;25.00;50.30;;;;;;5034017;28;20028;-61
2021/09/20 06:55:09;;;;;;;1.67;1.20;;;25.00;50.20;;;;;;5044761;28;20029;-58
2021/09/20 06:57:35;;;;;;;2.05;1.13;;;25.00;50.20;;;;;;5036990;28;20034;-59
2021/09/20 07:00:01;;;;;;;1.77;1.20;;;25.00;50.10;;;;;;5038752;28;20025;-58
2021/09/20 07:02:27;;;;;;;1.80;1.10;;;25.00;50.10;;;;;;5040051;28;20079;-60
2021/09/20 07:04:53;;;;;;;1.85;1.20;;;25.00;50.00;;;;;;5042551;28;20526;-59
2021/09/20 07:07:18;;;;;;;2.10;1.15;;;25.00;50.00;;;;;;5038652;28;20037;-58
2021/09/20 07:09:45;;;;;;;1.73;1.10;;;25.00;50.00;;;;;;5041754;28;20044;-59
2021/09/20 07:12:11;;;;;;;2.13;1.20;;;25.00;50.00;;;;;;5043704;28;20033;-60
2021/09/20 07:14:37;;;;;;;1.70;1.13;;;25.00;50.10;;;;;;5036905;28;20488;-56
2021/09/20 07:17:03;;;;;;;2.35;1.20;;;25.00;50.30;;;;;;5036659;28;20071;-59
2021/09/20 07:19:29;;;;;;;2.58;1.00;;;25.00;50.20;;;;;;5043989;28;20033;-59
2021/09/20 07:21:55;;;;;;;1.50;1.10;;;25.00;50.20;;;;;;5042757;28;20150;-58
2021/09/20 07:24:20;;;;;;;1.42;1.00;;;25.00;50.20;;;;;;5040844;28;20413;-59
2021/09/20 07:26:46;;;;;;;1.52;1.10;;;25.10;50.20;;;;;;5037798;28;20160;-56
2021/09/20 07:29:11;;;;;;;3.03;1.40;;;25.10;50.10;;;;;;5045213;28;20029;-57
2021/09/20 07:31:37;;;;;;;1.92;1.20;;;25.10;50.00;;;;;;5042713;28;20095;-59
2021/09/20 07:34:03;;;;;;;2.25;1.20;;;25.10;50.00;;;;;;5040131;28;20045;-53
2021/09/20 07:36:29;;;;;;;1.85;1.10;;;25.10;50.00;;;;;;5032859;28;20025;-59
2021/09/20 07:38:55;;;;;;;2.13;1.10;;;25.10;50.00;;;;;;5044284;28;20024;-56
2021/09/20 07:41:21;;;;;;;1.50;1.08;;;25.10;50.00;;;;;;5058061;28;20021;-59
2021/09/20 07:43:47;;;;;;;2.25;1.13;;;25.10;49.90;;;;;;5043586;28;20187;-56
2021/09/20 07:46:15;;;;;;;3.03;1.20;;;25.10;49.90;;;;;;5042105;28;20378;-59
2021/09/20 07:48:41;;;;;;;1.55;1.10;;;25.10;49.90;;;;;;5047461;28;20029;-58
2021/09/20 07:51:07;;;;;;;1.48;1.10;;;25.10;49.90;;;;;;5047952;28;20017;-54
2021/09/20 07:53:33;;;;;;;1.58;1.10;;;25.10;50.50;;;;;;5045987;28;20199;-60
2021/09/20 07:55:58;;;;;;;2.65;1.13;;;25.10;50.00;;;;;;5029155;28;20514;-60
2021/09/20 07:58:24;;;;;;;1.95;1.20;;;25.10;49.90;;;;;;5037453;28;20139;-55
2021/09/20 08:00:49;;;;;;;2.70;1.30;;;25.10;49.90;;;;;;5042330;28;20044;-60
2021/09/20 08:03:15;;;;;;;2.50;1.20;;;25.10;49.90;;;;;;5044860;28;20032;-59
2021/09/20 08:05:41;;;;;;;1.90;1.20;;;25.10;49.90;;;;;;5044671;28;20035;-60
2021/09/20 08:08:07;;;;;;;1.20;1.00;;;25.10;49.90;;;;;;5034752;28;20047;-59
2021/09/20 08:10:34;;;;;;;1.80;1.20;;;25.10;49.80;;;;;;5041521;28;20102;-60
2021/09/20 08:13:01;;;;;;;1.70;1.17;;;25.10;49.80;;;;;;5041960;28;20120;-60
2021/09/20 08:15:28;;;;;;;1.50;1.10;;;25.10;49.80;;;;;;5035095;28;20025;-58
2021/09/20 08:17:53;;;;;;;1.55;1.23;;;25.10;49.80;;;;;;5040856;28;20110;-59
2021/09/20 08:20:19;;;;;;;1.60;1.00;;;25.10;49.90;;;;;;5047694;28;20033;-59
2021/09/20 08:22:49;;;;;;;1.42;1.13;;;25.10;49.90;;;;;;5041537;28;20029;-59
2021/09/20 08:25:18;;;;;;;1.00;0.90;;;25.10;50.40;;;;;;5028230;28;20105;-56
2021/09/20 08:27:45;;;;;;;1.80;1.00;;;25.10;49.90;;;;;;5037988;28;20032;-52
2021/09/20 08:30:12;;;;;;;1.60;1.10;;;25.10;49.90;;;;;;5038968;28;20079;-58
2021/09/20 08:32:37;;;;;;;2.28;1.10;;;25.10;49.90;;;;;;5044248;28;20505;-58
2021/09/20 08:35:04;;;;;;;1.40;1.10;;;25.10;49.90;;;;;;5045578;28;20049;-58
2021/09/20 08:37:29;;;;;;;1.92;1.10;;;25.10;49.90;;;;;;5037197;28;20027;-59
2021/09/20 08:39:55;;;;;;;1.83;1.13;;;25.10;49.90;;;;;;5035042;28;20559;-55
2021/09/20 08:42:21;;;;;;;1.15;0.90;;;25.10;49.90;;;;;;5038687;28;20034;-58
2021/09/20 08:44:47;;;;;;;1.83;1.02;;;25.10;49.90;;;;;;5028716;28;20032;-59
2021/09/20 08:47:14;;;;;;;1.33;1.00;;;25.10;49.90;;;;;;5027857;28;20563;-59
2021/09/20 08:49:40;;;;;;;1.50;1.15;;;25.10;49.90;;;;;;5043454;28;20056;-58
2021/09/20 08:52:06;;;;;;;1.67;1.10;;;25.10;50.00;;;;;;5036005;28;20024;-58
2021/09/20 08:54:32;;;;;;;1.52;1.10;;;25.10;50.00;;;;;;5058111;28;20085;-58
2021/09/20 08:56:57;;;;;;;1.60;1.10;;;25.10;50.00;;;;;;5037032;28;20063;-53
2021/09/20 08:59:23;;;;;;;1.50;1.00;;;25.10;49.90;;;;;;5034166;28;20133;-55
2021/09/20 09:01:53;;;;;;;1.65;1.10;;;25.10;49.90;;;;;;5052206;28;20033;-56
2021/09/20 09:04:29;;;;;;;1.50;1.10;;;25.10;49.90;;;;;;5058800;28;20043;-56
2021/09/20 09:06:57;;;;;;;1.42;1.00;;;25.10;50.00;;;;;;5043732;28;20099;-55
2021/09/20 09:09:35;;;;;;;1.88;0.98;;;25.20;50.10;;;;;;5037721;28;20459;-57
2021/09/20 09:12:11;;;;;;;1.48;1.00;;;25.10;50.00;;;;;;5037707;28;20031;-55
2021/09/20 09:14:52;;;;;;;1.00;0.90;;;25.10;50.10;;;;;;5040389;28;20025;-56
2021/09/20 09:17:40;;;;;;;1.20;1.00;;;25.10;50.10;;;;;;5034959;28;20040;-56
2021/09/20 09:20:27;;;;;;;1.65;1.08;;;25.10;50.10;;;;;;5040707;28;20104;-56
2021/09/20 09:22:59;;;;;;;1.30;1.10;;;25.10;50.10;;;;;;5043453;28;20037;-59
2021/09/20 09:25:26;;;;;;;1.50;1.00;;;25.10;50.20;;;;;;5044888;28;20488;-55
2021/09/20 09:27:59;;;;;;;1.50;1.02;;;25.20;50.20;;;;;;5037126;28;20094;-59
2021/09/20 09:30:27;;;;;;;1.40;1.05;;;25.10;50.10;;;;;;5030752;28;20022;-54
2021/09/20 09:33:24;;;;;;;1.25;1.00;;;25.20;50.10;;;;;;5039074;28;20029;-53
2021/09/20 09:35:55;;;;;;;1.60;1.10;;;25.20;50.20;;;;;;5032600;28;20484;-59
2021/09/20 09:38:22;;;;;;;1.50;1.10;;;25.20;50.10;;;;;;5041296;28;20029;-52
2021/09/20 09:40:57;;;;;;;1.50;1.00;;;25.20;50.10;;;;;;5038355;28;20472;-57
2021/09/20 09:43:24;;;;;;;1.60;1.30;;;25.20;50.00;;;;;;5033536;28;20432;-58
2021/09/20 09:45:50;;;;;;;1.50;1.10;;;25.20;50.00;;;;;;5031975;28;20040;-57
2021/09/20 09:48:18;;;;;;;1.58;1.27;;;25.20;50.00;;;;;;5031503;28;20032;-57
2021/09/20 09:51:00;;;;;;;2.03;1.50;;;25.20;50.00;;;;;;5034101;28;20079;-58
2021/09/20 09:53:27;;;;;;;1.83;1.20;;;25.20;50.10;;;;;;5035161;28;20159;-50
2021/09/20 09:55:56;;;;;;;1.40;1.10;;;25.20;50.10;;;;;;5049368;28;20046;-55
2021/09/20 09:58:22;;;;;;;1.60;1.10;;;25.20;50.10;;;;;;5039218;28;20453;-60
2021/09/20 10:00:48;;;;;;;1.67;1.10;;;25.20;50.00;;;;;;5034011;28;20037;-57
2021/09/20 10:03:14;;;;;;;1.17;1.00;;;25.20;50.00;;;;;;5038730;28;20060;-58
2021/09/20 10:05:56;;;;;;;2.25;1.10;;;25.20;50.10;;;;;;5038142;28;20037;-58
2021/09/20 10:08:24;;;;;;;1.92;1.13;;;25.20;50.00;;;;;;5042067;28;20037;-58
2021/09/20 10:10:49;;;;;;;1.75;1.10;;;25.20;50.00;;;;;;5032661;28;20030;-56
2021/09/20 10:13:15;;;;;;;1.30;0.98;;;25.30;50.00;;;;;;5037997;28;20500;-57
2021/09/20 10:15:41;;;;;;;1.50;1.05;;;25.20;49.90;;;;;;5059218;28;20090;-58
2021/09/20 10:18:07;;;;;;;2.15;1.20;;;25.20;49.90;;;;;;5045356;28;20033;-53
2021/09/20 10:20:33;;;;;;;1.75;1.20;;;25.20;49.90;;;;;;5034925;28;20095;-56
2021/09/20 10:22:59;;;;;;;1.42;1.08;;;25.30;49.90;;;;;;5038539;28;20433;-57
2021/09/20 10:25:28;;;;;;;1.00;0.90;;;25.30;49.90;;;;;;5044056;28;20040;-59
2021/09/20 10:27:53;;;;;;;1.15;0.90;;;25.30;50.00;;;;;;5040210;28;20645;-57
2021/09/20 10:30:25;;;;;;;1.20;1.00;;;25.20;50.00;;;;;;5038390;28;20137;-54
2021/09/20 10:32:53;;;;;;;1.23;0.90;;;25.20;50.10;;;;;;5034121;28;20028;-57
2021/09/20 10:35:26;;;;;;;1.98;1.10;;;25.20;50.10;;;;;;5033558;28;20084;-58
2021/09/20 10:37:59;;;;;;;1.55;1.08;;;25.20;50.10;;;;;;5039316;28;20835;-56
2021/09/20 10:40:26;;;;;;;1.65;1.10;;;25.20;50.10;;;;;;5041719;28;20107;-55
2021/09/20 10:42:54;;;;;;;1.27;1.10;;;25.30;50.00;;;;;;5041723;28;20036;-58
2021/09/20 10:45:38;;;;;;;1.17;1.02;;;25.20;49.90;;;;;;5043909;28;20045;-59
2021/09/20 10:48:15;;;;;;;3.95;1.00;;;25.30;50.50;;;;;;5044227;28;20029;-58
2021/09/20 10:50:47;;;;;;;1.55;1.13;;;25.30;50.00;;;;;;5045470;28;20032;-58
2021/09/20 10:53:33;;;;;;;1.88;1.08;;;25.30;50.00;;;;;;5044894;28;20037;-57
2021/09/20 10:56:13;;;;;;;1.50;1.00;;;25.20;49.90;;;;;;5038388;28;20059;-57
2021/09/20 10:58:54;;;;;;;1.35;1.00;;;25.20;50.00;;;;;;5044429;28;20032;-58
2021/09/20 11:01:20;;;;;;;1.48;1.02;;;25.20;50.00;;;;;;5051191;28;20029;-56
2021/09/20 11:03:59;;;;;;;1.30;1.10;;;25.20;50.00;;;;;;5043965;28;20499;-58
2021/09/20 11:06:32;;;;;;;1.67;1.10;;;25.20;50.00;;;;;;5036334;28;20029;-55
2021/09/20 11:08:57;;;;;;;1.52;1.10;;;25.30;50.00;;;;;;5038496;28;20034;-58
2021/09/20 11:11:39;;;;;;;1.67;1.30;;;25.20;50.00;;;;;;5043763;28;20303;-57
2021/09/20 11:14:45;;;;;;;1.45;1.15;;;25.20;50.00;;;;;;5040121;28;20029;-57
2021/09/20 11:17:24;;;;;;;1.52;1.00;;;25.20;50.00;;;;;;5032942;28;20136;-52
2021/09/20 11:20:00;;;;;;;;;;;25.20;50.40;;;;;;5042196;28;20029;-58
2021/09/20 11:22:29;;;;;;;1.52;1.10;;;25.20;50.20;;;;;;5037446;28;19928;-60
2021/09/20 11:25:04;;;;;;;1.88;1.20;;;25.20;50.10;;;;;;5044325;28;20435;-61
2021/09/20 11:27:36;;;;;;;2.65;1.10;;;25.20;50.00;;;;;;5035989;28;20485;-58
2021/09/20 11:30:09;;;;;;;1.60;1.10;;;25.20;50.10;;;;;;5034474;28;20488;-60
2021/09/20 11:32:55;;;;;;;1.40;1.20;;;25.20;50.10;;;;;;5023277;28;20473;-60
2021/09/20 11:35:25;;;;;;;1.88;1.20;;;25.20;50.10;;;;;;5019960;28;20022;-61
2021/09/20 11:37:52;;;;;;;1.40;1.10;;;25.30;50.10;;;;;;5018091;28;20030;-60
2021/09/20 11:40:20;;;;;;;3.13;1.30;;;25.30;50.10;;;;;;5022175;28;20029;-60
2021/09/20 11:42:48;;;;;;;1.95;1.23;;;25.20;50.10;;;;;;5013819;28;20021;-60
2021/09/20 11:45:22;;;;;;;3.05;1.08;;;25.20;50.20;;;;;;5017437;28;20495;-60
2021/09/20 11:47:55;;;;;;;2.00;1.27;;;25.20;50.20;;;;;;5010546;28;20493;-52
2021/09/20 11:50:28;;;;;;;1.80;1.20;;;25.30;50.20;;;;;;5023749;28;20037;-56
2021/09/20 11:52:56;;;;;;;1.85;1.08;;;25.20;50.40;;;;;;5022258;28;20175;-59
2021/09/20 11:55:40;;;;;;;2.28;1.50;;;25.20;50.30;;;;;;5042612;28;20029;-61
2021/09/20 11:58:08;;;;;;;2.20;1.20;;;25.20;50.30;;;;;;5026787;28;20064;-58
2021/09/20 12:00:36;;;;;;;2.72;1.20;;;25.20;50.40;;;;;;5017197;28;20034;-58
2021/09/20 12:03:05;;;;;;;1.83;1.15;;;25.20;50.40;;;;;;5042269;28;20101;-60
2021/09/20 12:05:32;;;;;;;1.52;1.20;;;25.20;50.70;;;;;;5044104;28;20168;-60
2021/09/20 12:08:20;;;;;;;1.60;1.00;;;25.20;50.40;;;;;;5047859;28;20049;-57
2021/09/20 12:10:48;;;;;;;2.50;1.20;;;25.20;50.50;;;;;;5039355;28;20024;-60
2021/09/20 12:13:20;;;;;;;1.77;1.20;;;25.20;50.40;;;;;;5035726;28;20131;-60
2021/09/20 12:15:48;;;;;;;2.05;1.00;;;25.30;50.50;;;;;;5038927;28;20457;-61
2021/09/20 12:18:16;;;;;;;2.40;1.20;;;25.20;50.40;;;;;;5046428;28;20116;-61
2021/09/20 12:20:49;;;;;;;1.67;1.25;;;25.30;50.60;;;;;;5036760;28;20107;-55
2021/09/20 12:23:22;;;;;;;1.95;1.30;;;25.20;50.60;;;;;;5036792;28;20057;-58
2021/09/20 12:25:49;;;;;;;2.53;1.30;;;25.20;50.70;;;;;;5040538;28;20097;-60
2021/09/20 12:28:22;;;;;;;2.08;1.30;;;25.20;50.70;;;;;;5040908;28;20048;-59
2021/09/20 12:30:55;;;;;;;1.75;1.25;;;25.30;50.70;;;;;;5042342;28;20057;-58
2021/09/20 12:33:21;;;;;;;2.80;1.30;;;25.30;50.70;;;;;;5037433;28;20060;-52
2021/09/20 12:35:47;;;;;;;2.17;1.30;;;25.30;50.90;;;;;;5047430;28;20053;-55
2021/09/20 12:38:31;;;;;;;1.80;1.10;;;25.30;50.70;;;;;;5038546;28;20041;-56
2021/09/20 12:41:01;;;;;;;2.10;1.35;;;25.30;50.80;;;;;;5049128;28;20038;-57
2021/09/20 12:43:31;;;;;;;2.65;1.08;;;25.30;50.70;;;;;;5049844;28;20035;-58
2021/09/20 12:46:08;;;;;;;2.78;1.20;;;25.30;50.80;;;;;;5036047;28;20326;-60
2021/09/20 12:48:37;;;;;;;2.17;1.40;;;25.30;50.60;;;;;;5040736;28;20033;-60
2021/09/20 12:51:05;;;;;;;2.28;1.20;;;25.30;50.50;;;;;;5032282;28;20029;-60